createdAt,value
2017-04-22T00:08:57.865Z,10.15
2017-04-22T00:18:57.730Z,9.97
2017-04-22T00:28:57.724Z,9.93
2017-04-22T00:38:57.838Z,9.88
2017-04-22T00:48:57.756Z,9.63
2017-04-22T00:58:57.724Z,9.05
2017-04-22T01:08:57.734Z,8.66
2017-04-22T01:18:57.702Z,8.44
2017-04-22T01:28:57.712Z,8.28
2017-04-22T01:38:57.709Z,8.26
2017-04-22T01:48:57.726Z,8.22
2017-04-22T01:58:57.815Z,8.18
2017-04-22T02:08:57.697Z,8.14
2017-04-22T02:18:57.886Z,7.99
2017-04-22T02:28:57.705Z,7.9
2017-04-22T02:38:57.902Z,7.71
2017-04-22T02:48:58.163Z,7.67
2017-04-22T02:58:57.722Z,7.69
2017-04-22T03:08:57.786Z,7.62
2017-04-22T03:18:58.275Z,7.59
2017-04-22T03:28:57.696Z,7.59
2017-04-22T03:48:57.740Z,7.71
2017-04-22T03:58:57.692Z,7.84
2017-04-22T04:08:57.697Z,7.81
2017-04-22T04:18:58.272Z,7.93
2017-04-22T04:28:57.775Z,7.9
2017-04-22T04:38:57.684Z,7.84
2017-04-22T04:48:57.807Z,8.08
2017-04-22T04:58:57.686Z,8.14
2017-04-22T05:08:57.828Z,7.74
2017-04-22T05:18:58.282Z,8
2017-04-22T05:28:57.709Z,8.37
2017-04-22T05:38:57.780Z,8.68
2017-04-22T05:48:57.765Z,8.73
2017-04-22T05:58:57.670Z,8.53
2017-04-22T06:08:57.785Z,8.33
2017-04-22T06:18:57.718Z,8.35
2017-04-22T06:28:57.674Z,8.76
2017-04-22T06:38:57.663Z,9.23
2017-04-22T06:48:57.755Z,9.05
2017-04-22T06:58:57.707Z,9.35
2017-04-22T07:08:57.719Z,9.71
2017-04-22T07:18:57.672Z,10.84
2017-04-22T07:28:57.787Z,11.39
2017-04-22T07:38:57.676Z,11.2
2017-04-22T07:48:57.669Z,11.07
2017-04-22T07:58:57.754Z,17.3
2017-04-22T08:08:57.679Z,19.63
2017-04-22T08:18:57.781Z,19.68
2017-04-22T08:28:57.705Z,20.91
2017-04-22T08:38:57.765Z,17.48
2017-04-22T08:48:57.669Z,14.56
2017-04-22T08:58:57.676Z,13.81
2017-04-22T09:08:57.687Z,13.09
2017-04-22T09:18:57.774Z,12.71
2017-04-22T09:28:57.719Z,12.7
2017-04-22T09:38:57.778Z,12.29
2017-04-22T09:48:57.719Z,12.54
2017-04-22T09:58:57.709Z,12.84
2017-04-22T10:08:57.723Z,13.65
2017-04-22T10:18:57.678Z,12.78
2017-04-22T10:28:57.706Z,12.81
2017-04-22T10:38:57.715Z,13.52
2017-04-22T10:48:57.702Z,14.14
2017-04-22T10:58:57.676Z,13.38
2017-04-22T11:08:57.675Z,12.6
2017-04-22T11:18:57.760Z,11.54
2017-04-22T11:28:57.696Z,11.02
2017-04-22T11:38:57.793Z,11.38
2017-04-22T11:48:57.783Z,12.12
2017-04-22T11:58:57.718Z,12.54
2017-04-22T12:08:57.780Z,13.17
2017-04-22T12:18:57.737Z,14.19
2017-04-22T12:28:57.806Z,13.37
2017-04-22T12:38:58.228Z,13.98
2017-04-22T12:48:57.799Z,13.8
2017-04-22T12:58:57.806Z,13.49
2017-04-22T13:08:57.717Z,13.52
2017-04-22T13:18:57.814Z,13.37
2017-04-22T13:28:57.708Z,13.29
2017-04-22T13:38:57.767Z,13.09
2017-04-22T13:48:57.705Z,12.7
2017-04-22T13:58:57.678Z,13.09
2017-04-22T14:08:57.829Z,13.18
2017-04-22T14:18:57.734Z,13.62
2017-04-22T14:28:57.976Z,13.04
2017-04-22T14:38:57.694Z,13.33
2017-04-22T14:48:57.706Z,12.75
2017-04-22T14:58:57.758Z,12.59
2017-04-22T15:08:58.169Z,12.11
2017-04-22T15:18:58.829Z,11.61
2017-04-22T15:28:57.822Z,11.8
2017-04-22T15:38:59.320Z,11.99
2017-04-22T15:48:58.017Z,12.05
2017-04-22T15:58:58.169Z,11.53
2017-04-22T16:08:58.310Z,11.99
2017-04-22T16:18:57.916Z,11.89
2017-04-22T16:28:58.531Z,11.64
2017-04-22T16:38:58.368Z,11.39
2017-04-22T16:48:58.626Z,11.31
2017-04-22T16:58:57.997Z,10.8
2017-04-22T17:08:58.237Z,10.63
2017-04-22T17:18:58.209Z,10.4
2017-04-22T17:29:01.253Z,10.19
2017-04-22T17:38:58.442Z,9.94
2017-04-22T17:48:58.415Z,9.83
2017-04-22T17:58:59.600Z,9.67
2017-04-22T18:08:58.422Z,9.49
2017-04-22T18:18:58.309Z,9.21
2017-04-22T18:28:58.502Z,8.71
2017-04-22T18:39:01.069Z,8.63
2017-04-22T18:48:59.461Z,8.45
2017-04-22T18:58:59.662Z,8.11
2017-04-22T19:09:00.595Z,8.02
2017-04-22T19:18:59.133Z,7.74
2017-04-22T19:28:57.962Z,7.38
2017-04-22T19:38:59.144Z,7.26
2017-04-22T19:48:57.956Z,7.26
2017-04-22T19:58:59.876Z,7.53
2017-04-22T20:10:59.760Z,7.08
2017-04-22T20:18:58.345Z,6.86
2017-04-22T20:28:59.569Z,6.62
2017-04-22T20:39:01.025Z,6.56
2017-04-22T20:48:59.166Z,6.41
2017-04-22T20:58:58.678Z,6.09
2017-04-22T21:08:57.767Z,6.06
2017-04-22T21:18:57.652Z,5.56
2017-04-22T21:28:57.971Z,5.46
2017-04-22T21:38:57.756Z,5.31
2017-04-22T21:48:57.651Z,5.2
2017-04-22T21:58:57.685Z,5.17
2017-04-22T22:08:57.701Z,5.38
2017-04-22T22:18:57.678Z,5.28
2017-04-22T22:28:57.626Z,5.22
2017-04-22T22:38:57.646Z,5.02
2017-04-22T22:48:57.632Z,4.92
2017-04-22T22:58:57.705Z,5.1
2017-04-22T23:08:57.678Z,4.79
2017-04-22T23:18:57.638Z,4.79
2017-04-22T23:28:57.622Z,4.8
2017-04-22T23:38:57.655Z,4.83
2017-04-22T23:48:57.756Z,4.92
2017-04-22T23:58:57.686Z,5.02
